但馬空港の過去48時間の天気

但馬空港 (Tajima)

現在時刻: 10/18 01:36 JST (10/17 16:36 UTC) 以下の時間は現地時間です。

過去48時間のMETAR気象情報
時間 風向 風速(m/s) 視程 気温(℃) 湿度(%) 気圧(hPa) 天気現象
17 18:00 2 10km以上 15 82 1022
17 17:00 2 10km以上 16 77 1022
17 16:00 2 10km以上 17 68 1022
17 15:00 5 10km以上 18 64 1021
17 14:00 5 10km以上 19 60 1021
17 13:00 5 10km以上 19 56 1022
17 12:00 北北東 3 10km以上 18 64 1022
17 11:00 北北東 2 10km以上 18 77 1023
17 10:00 静穏 0 5,000m 15 94 1023 散在した霧
17 09:39 不定 1 2,500m 14 100 1023 散在した霧
17 09:12 不定 1 2,000m 14 100 1023 散在した霧
17 09:00 不定 1 1,500m 14 100 1023 散在した霧
17 08:30 不定 1 400m 13 100 1024
16 18:00 南西 2 4,000m 14 100 1023 弱いしゅう雨 散在した霧
16 17:00 南南西 2 10km以上 14 100 1023 散在した霧
16 16:00 不定 1 8,000m 15 88 1023 散在した霧
16 15:00 不定 1 6,000m 15 94 1023 散在した霧
16 14:00 不定 1 5,000m 15 88 1023 弱いしゅう雨 散在した霧
16 13:00 不定 1 6,000m 15 88 1023 弱いしゅう雨 散在した霧
16 12:00 不定 1 5,000m 14 94 1024 弱いしゅう雨 散在した霧
16 11:34 不定 1 5,000m 14 94 1024 弱いしゅう雨 散在した霧
16 11:00 南西 2 2,500m 14 94 1025 弱いしゅう雨 散在した霧
16 10:05 不定 1 3,000m 14 94 1025 弱いしゅう雨 散在した霧
16 10:00 不定 1 6,000m 14 94 1025 弱いしゅう雨 散在した霧
16 09:07 南西 2 4,000m 14 94 1025 弱いしゅう雨 散在した霧
16 09:00 南西 2 6,000m 14 94 1026 弱いしゅう雨 散在した霧
16 08:30 西南西 3 7,000m 14 94 1026 弱いしゅう雨 散在した霧
RJBT 170900Z 36004KT 9999 FEW025 BKN/// 15/12 Q1022
RJBT 170800Z 36003KT 310V030 9999 FEW025 BKN/// 16/12 Q1022
RJBT 170700Z 01004KT 340V060 9999 FEW025 BKN/// 17/11 Q1022
RJBT 170600Z 01009KT 340V050 9999 FEW025 SCT030 BKN/// 18/11 Q1021
RJBT 170500Z 36009KT 330V030 9999 FEW025 SCT030 BKN/// 19/11 Q1021
RJBT 170400Z 36009KT 340V040 9999 FEW020 SCT030 BKN/// 19/10 Q1022
RJBT 170300Z 02006KT 250V070 9999 FEW020 SCT025 18/11 Q1022
RJBT 170200Z 03004KT 320V100 9999 FEW005 SCT025 18/14 Q1023
RJBT 170100Z 00000KT 5000 BCFG FEW000 BKN/// 15/14 Q1023
RJBT 170039Z VRB01KT 2500 BCFG FEW000 BKN/// 14/14 Q1023 RMK 1ST000 A3022 0900S FG BANK AROUND
RJBT 170012Z VRB01KT 2000 BCFG FEW000 BKN150 BKN/// 14/14 Q1023 RMK 1ST000 5AC150 A3023 1000W FG ALL QUAD
RJBT 170000Z VRB01KT 1500 BCFG FEW000 SCT002 BKN150 14/14 Q1023
RJBT 162330Z VRB01KT 0400 FG FEW000 SCT002 BKN150 13/13 Q1024
RJBT 160900Z 22003KT 4000 -SHRA BCFG FEW000 SCT020 BKN080 14/14 Q1023
RJBT 160800Z 21003KT 9999 BCFG FEW000 SCT080 BKN090 14/14 Q1023
RJBT 160700Z VRB01KT 8000 BCFG FEW000 SCT025 BKN080 15/13 Q1023
RJBT 160600Z VRB02KT 6000 BCFG FEW000 SCT080 BKN090 15/14 Q1023
RJBT 160500Z VRB01KT 5000 -SHRA BCFG FEW000 SCT010 BKN080 15/13 Q1023
RJBT 160400Z VRB01KT 6000 -SHRA BCFG FEW000 SCT030 BKN080 15/13 Q1023
RJBT 160300Z VRB02KT 5000 -SHRA BCFG FEW000 SCT030 BKN080 14/13 Q1024
RJBT 160234Z VRB01KT 5000 -SHRA BCFG FEW000 SCT030 BKN070 14/13 Q1024 RMK 1ST000 4CU030 7AC070 A3026 2000E-S FG BANK N-SW
RJBT 160200Z 23004KT 2500 -SHRA BCFG FEW000 SCT015 BKN025 14/13 Q1025
RJBT 160105Z VRB01KT 3000 -SHRA BCFG FEW000 SCT010 BKN020 14/13 Q1025 RMK 1ST000 4CU010 6CU020 A3029 1000NW FG ALL QUAD
RJBT 160100Z VRB02KT 6000 -SHRA BCFG FEW000 SCT010 BKN020 14/13 Q1025
RJBT 160007Z 22004KT 4000 -SHRA BCFG FEW000 SCT020 BKN070 14/13 Q1025 RMK 1ST000 4CU020 7AC070 A3029 FG ALL QUAD
RJBT 160000Z 23004KT 6000 -SHRA BCFG FEW000 SCT020 BKN070 14/13 Q1026
RJBT 152330Z 24005KT 7000 -SHRA BCFG FEW000 SCT020 BKN070 14/13 Q1026